createdAt,value
2018-09-08T00:00:35.616Z,13.40
2018-09-08T00:01:15.017Z,12.10
2018-09-08T00:01:52.968Z,11.60
2018-09-08T00:02:32.078Z,12.50
2018-09-08T00:03:10.153Z,12.50
2018-09-08T00:03:48.225Z,12.57
2018-09-08T00:04:26.290Z,12.20
2018-09-08T00:05:04.196Z,11.60
2018-09-08T00:05:42.149Z,11.40
2018-09-08T00:06:25.146Z,12.93
2018-09-08T00:07:07.188Z,11.70
2018-09-08T00:07:45.277Z,10.87
2018-09-08T00:08:23.261Z,10.93
2018-09-08T00:09:01.424Z,11.10
2018-09-08T00:09:39.604Z,12.23
2018-09-08T00:10:17.750Z,11.53
2018-09-08T00:10:55.778Z,11.70
2018-09-08T00:11:33.957Z,11.90
2018-09-08T00:12:11.981Z,11.10
2018-09-08T00:12:49.972Z,12.00
2018-09-08T00:13:28.058Z,11.57
2018-09-08T00:14:06.265Z,12.10
2018-09-08T00:14:42.323Z,11.70
2018-09-08T00:15:24.319Z,12.30
2018-09-08T00:16:07.694Z,11.30
2018-09-08T00:16:49.947Z,11.73
2018-09-08T00:17:31.946Z,12.20
2018-09-08T00:18:14.157Z,12.07
2018-09-08T00:18:56.143Z,11.93
2018-09-08T00:19:38.404Z,11.77
2018-09-08T00:20:21.097Z,11.88
2018-09-08T00:21:03.073Z,11.77
2018-09-08T00:21:45.112Z,10.83
2018-09-08T00:22:27.043Z,11.33
2018-09-08T00:23:08.947Z,11.80
2018-09-08T00:23:51.061Z,12.00
2018-09-08T00:24:33.052Z,11.93
2018-09-08T00:25:15.169Z,11.07
2018-09-08T00:25:57.333Z,12.00
2018-09-08T00:26:34.415Z,11.50
2018-09-08T00:27:10.662Z,11.10
2018-09-08T00:27:58.577Z,11.20
2018-09-08T00:28:41.725Z,11.17
2018-09-08T00:29:23.865Z,10.80
2018-09-08T00:30:05.394Z,10.90
2018-09-08T00:30:43.818Z,10.97
2018-09-08T00:31:23.027Z,10.10
2018-09-08T00:32:01.606Z,11.47
2018-09-08T00:32:41.117Z,10.87
2018-09-08T00:33:19.153Z,11.30
2018-09-08T00:33:57.149Z,10.33
2018-09-08T00:34:35.174Z,12.40
2018-09-08T00:35:13.250Z,11.50
2018-09-08T00:35:51.275Z,12.67
2018-09-08T00:36:29.350Z,12.50
2018-09-08T00:37:07.406Z,11.97
2018-09-08T00:37:45.481Z,12.00
2018-09-08T00:38:23.526Z,12.77
2018-09-08T00:39:01.537Z,10.83
2018-09-08T00:39:39.925Z,11.30
2018-09-08T00:40:17.950Z,11.57
2018-09-08T00:40:55.996Z,11.23
2018-09-08T00:41:34.039Z,12.23
2018-09-08T00:42:12.046Z,12.97
2018-09-08T00:42:50.270Z,12.80
2018-09-08T00:43:28.339Z,11.43
2018-09-08T00:44:06.567Z,13.17
2018-09-08T00:44:44.557Z,12.67
2018-09-08T00:45:22.466Z,12.40
2018-09-08T00:46:00.357Z,10.87
2018-09-08T00:46:38.333Z,11.37
2018-09-08T00:47:16.351Z,11.23
2018-09-08T00:47:54.360Z,12.10
2018-09-08T00:48:32.484Z,11.97
2018-09-08T00:49:10.466Z,11.80
2018-09-08T00:49:48.706Z,11.93
2018-09-08T00:50:26.695Z,11.00
2018-09-08T00:51:04.621Z,10.30
2018-09-08T00:51:42.736Z,11.47
2018-09-08T00:52:20.813Z,11.13
2018-09-08T00:52:59.338Z,11.27
2018-09-08T00:53:37.368Z,11.50
2018-09-08T00:54:15.269Z,11.97
2018-09-08T00:54:53.314Z,12.00
2018-09-08T00:55:31.481Z,11.60
2018-09-08T00:56:09.632Z,10.70
2018-09-08T00:56:47.733Z,10.67
2018-09-08T00:57:25.617Z,11.80
2018-09-08T00:58:03.794Z,10.77
2018-09-08T00:58:45.231Z,11.50
2018-09-08T00:59:23.180Z,12.60
2018-09-08T01:00:01.242Z,12.23
2018-09-08T01:00:39.338Z,10.80
2018-09-08T01:01:18.069Z,10.60
2018-09-08T01:01:56.124Z,9.90
2018-09-08T01:02:34.412Z,10.33
2018-09-08T01:03:12.415Z,10.10
2018-09-08T01:03:50.446Z,11.03
2018-09-08T01:04:28.570Z,10.20
2018-09-08T01:05:06.557Z,9.93
2018-09-08T01:05:44.872Z,9.30
2018-09-08T01:06:23.194Z,9.60
2018-09-08T01:07:01.290Z,10.00
2018-09-08T01:07:39.487Z,9.33
2018-09-08T01:08:17.769Z,10.20
2018-09-08T01:08:56.028Z,10.77
2018-09-08T01:09:34.423Z,10.10
2018-09-08T01:10:12.871Z,11.10
2018-09-08T01:10:51.279Z,11.07
2018-09-08T01:11:29.547Z,10.30
2018-09-08T01:12:07.821Z,9.77
2018-09-08T01:12:46.183Z,10.80
2018-09-08T01:13:24.341Z,10.23
2018-09-08T01:14:02.482Z,12.00
2018-09-08T01:14:40.383Z,10.00
2018-09-08T01:15:18.316Z,9.93
2018-09-08T01:15:56.333Z,11.07
2018-09-08T01:16:34.430Z,10.73
2018-09-08T01:17:12.418Z,10.80
2018-09-08T01:17:50.437Z,10.83
2018-09-08T01:18:28.378Z,10.83
2018-09-08T01:19:06.806Z,10.87
2018-09-08T01:19:44.672Z,10.37
2018-09-08T01:20:22.801Z,11.50
2018-09-08T01:21:00.683Z,10.57
2018-09-08T01:21:38.758Z,10.07
2018-09-08T01:22:16.738Z,10.50
2018-09-08T01:22:54.647Z,10.07
2018-09-08T01:23:32.802Z,10.93
2018-09-08T01:24:10.827Z,10.30
2018-09-08T01:24:48.903Z,10.30
2018-09-08T01:25:26.886Z,10.53
2018-09-08T01:26:04.898Z,9.93
2018-09-08T01:26:43.030Z,10.70
2018-09-08T01:27:20.928Z,11.20
2018-09-08T01:27:58.787Z,10.83
2018-09-08T01:28:36.896Z,11.40
2018-09-08T01:29:14.940Z,10.30
2018-09-08T01:29:52.885Z,11.17
2018-09-08T01:30:30.879Z,11.50
2018-09-08T01:31:08.907Z,10.50
2018-09-08T01:31:47.339Z,10.70
2018-09-08T01:32:25.390Z,10.70
2018-09-08T01:33:03.411Z,10.40
2018-09-08T01:33:41.461Z,10.90
2018-09-08T01:34:20.101Z,10.77
2018-09-08T01:34:57.959Z,12.93
2018-09-08T01:35:36.029Z,12.40
2018-09-08T01:36:13.947Z,10.50
2018-09-08T01:36:52.016Z,12.50
2018-09-08T01:37:29.958Z,11.73
2018-09-08T01:38:07.898Z,11.17
2018-09-08T01:38:45.923Z,10.77
2018-09-08T01:39:23.883Z,11.90
2018-09-08T01:40:01.807Z,11.73
2018-09-08T01:40:39.807Z,11.07
2018-09-08T01:41:17.729Z,10.63
2018-09-08T01:41:55.641Z,11.43
2018-09-08T01:42:33.625Z,10.73
2018-09-08T01:43:11.763Z,11.03
2018-09-08T01:43:49.834Z,11.70
2018-09-08T01:44:29.129Z,10.50
2018-09-08T01:45:07.081Z,9.97
2018-09-08T01:45:44.985Z,10.40
2018-09-08T01:46:22.960Z,11.00
2018-09-08T01:47:01.054Z,9.23
2018-09-08T01:47:39.333Z,10.13
2018-09-08T01:48:17.264Z,9.53
2018-09-08T01:48:55.280Z,9.27
2018-09-08T01:49:33.145Z,9.20
2018-09-08T01:50:11.359Z,8.80
2018-09-08T01:50:49.384Z,10.33
2018-09-08T01:51:28.327Z,9.47
2018-09-08T01:52:06.364Z,9.67
2018-09-08T01:52:44.368Z,10.30
2018-09-08T01:53:22.320Z,9.30
2018-09-08T01:54:00.386Z,9.33
2018-09-08T01:54:38.232Z,10.47
2018-09-08T01:55:18.038Z,9.03
2018-09-08T01:55:55.957Z,10.17
2018-09-08T01:56:34.032Z,9.50
2018-09-08T01:57:11.988Z,9.10
2018-09-08T01:57:50.335Z,9.10
2018-09-08T01:58:28.352Z,8.87
2018-09-08T01:59:06.394Z,9.90
2018-09-08T01:59:44.496Z,11.57
2018-09-08T02:00:22.411Z,9.57
2018-09-08T02:01:00.257Z,9.40
2018-09-08T02:01:38.177Z,10.07
2018-09-08T02:02:16.967Z,10.40
2018-09-08T02:02:54.807Z,9.67
2018-09-08T02:03:32.826Z,9.80
2018-09-08T02:04:10.781Z,9.73
2018-09-08T02:04:48.792Z,10.57
2018-09-08T02:05:26.705Z,10.00
2018-09-08T02:06:04.797Z,10.87
2018-09-08T02:06:43.733Z,12.23
2018-09-08T02:07:22.001Z,10.40
2018-09-08T02:08:00.029Z,10.93
2018-09-08T02:08:37.948Z,11.50
2018-09-08T02:09:17.110Z,12.83
2018-09-08T02:09:54.967Z,10.80
2018-09-08T02:10:32.935Z,11.03
2018-09-08T02:11:11.328Z,10.50
2018-09-08T02:11:49.593Z,11.13
2018-09-08T02:12:27.550Z,10.70
2018-09-08T02:13:05.555Z,10.83
2018-09-08T02:13:43.597Z,9.70
2018-09-08T02:14:21.550Z,10.57
2018-09-08T02:14:59.502Z,9.40
2018-09-08T02:15:37.409Z,10.70
2018-09-08T02:16:15.396Z,9.70
2018-09-08T02:16:53.329Z,10.47
2018-09-08T02:17:31.320Z,9.77
2018-09-08T02:18:09.328Z,10.13
2018-09-08T02:18:47.572Z,9.30
2018-09-08T02:19:25.568Z,8.77
2018-09-08T02:20:03.542Z,9.87
2018-09-08T02:20:41.484Z,10.30
2018-09-08T02:21:19.527Z,10.93
2018-09-08T02:21:57.565Z,10.90
2018-09-08T02:22:35.499Z,11.47
2018-09-08T02:23:13.504Z,12.60
2018-09-08T02:23:51.605Z,12.00
2018-09-08T02:24:29.481Z,12.23
2018-09-08T02:25:08.278Z,12.20
2018-09-08T02:25:46.208Z,12.13
2018-09-08T02:26:24.264Z,13.57
2018-09-08T02:27:02.188Z,13.07
2018-09-08T02:27:40.199Z,12.87
2018-09-08T02:28:18.227Z,13.43
2018-09-08T02:28:56.182Z,14.03
2018-09-08T02:29:34.252Z,13.83
2018-09-08T02:30:12.392Z,13.07
2018-09-08T02:30:50.305Z,13.20
2018-09-08T02:31:28.357Z,14.20
2018-09-08T02:32:06.396Z,14.37
2018-09-08T02:32:44.363Z,13.03
2018-09-08T02:33:22.350Z,13.00
2018-09-08T02:34:00.328Z,13.80
2018-09-08T02:34:39.255Z,13.53
2018-09-08T02:35:17.278Z,13.90
2018-09-08T02:35:55.269Z,14.43
2018-09-08T02:36:33.272Z,15.57
2018-09-08T02:37:11.227Z,15.13
2018-09-08T02:37:49.245Z,16.00
2018-09-08T02:38:27.116Z,16.53
2018-09-08T02:39:05.212Z,15.93
2018-09-08T02:39:43.175Z,14.90
2018-09-08T02:40:21.231Z,13.83
2018-09-08T02:40:59.281Z,13.47
2018-09-08T02:41:37.240Z,13.07
2018-09-08T02:42:15.137Z,13.60
2018-09-08T02:42:53.101Z,14.80
2018-09-08T02:43:31.152Z,12.70
2018-09-08T02:44:09.056Z,15.67
2018-09-08T02:44:47.075Z,15.70
2018-09-08T02:45:25.955Z,13.83
2018-09-08T02:46:03.836Z,13.57
2018-09-08T02:46:42.280Z,13.80
2018-09-08T02:47:20.194Z,12.10
2018-09-08T02:47:58.236Z,12.00
2018-09-08T02:48:36.392Z,11.83
2018-09-08T02:49:14.380Z,11.50
2018-09-08T02:50:01.218Z,10.70
2018-09-08T02:50:39.954Z,10.17
2018-09-08T02:51:14.724Z,9.23
2018-09-08T02:51:49.468Z,8.70
2018-09-08T02:52:24.329Z,8.30
2018-09-08T02:52:59.242Z,8.37
2018-09-08T02:53:34.022Z,8.30
2018-09-08T02:54:08.814Z,8.50
2018-09-08T02:54:43.526Z,8.27
2018-09-08T02:55:18.304Z,8.40
2018-09-08T02:55:53.019Z,7.77
2018-09-08T02:56:27.818Z,8.23
2018-09-08T02:57:02.641Z,6.83
2018-09-08T02:57:37.359Z,8.00
2018-09-08T02:58:12.102Z,8.10
2018-09-08T02:58:46.841Z,8.20
2018-09-08T02:59:21.576Z,8.67
2018-09-08T02:59:56.737Z,8.50
2018-09-08T03:00:31.938Z,8.53
2018-09-08T03:01:06.744Z,9.20
2018-09-08T03:01:41.488Z,8.90
2018-09-08T03:02:16.277Z,8.53
2018-09-08T03:02:51.171Z,9.13
2018-09-08T03:03:25.951Z,8.03
2018-09-08T03:04:00.709Z,7.53
2018-09-08T03:04:35.446Z,7.67
2018-09-08T03:05:10.222Z,6.93
2018-09-08T03:05:44.958Z,7.03
2018-09-08T03:06:19.680Z,6.53
2018-09-08T03:06:54.497Z,7.03
2018-09-08T03:07:29.266Z,7.53
2018-09-08T03:08:03.985Z,8.33
2018-09-08T03:08:38.740Z,8.00
2018-09-08T03:09:13.494Z,6.60
2018-09-08T03:09:48.381Z,7.47
2018-09-08T03:10:23.837Z,7.93
2018-09-08T03:10:58.700Z,7.23
2018-09-08T03:11:33.468Z,8.33
2018-09-08T03:12:08.333Z,7.43
2018-09-08T03:12:43.102Z,8.07
2018-09-08T03:13:17.841Z,7.60
2018-09-08T03:13:52.675Z,7.37
2018-09-08T03:14:27.434Z,7.07
2018-09-08T03:15:02.248Z,7.13
2018-09-08T03:15:36.975Z,7.23
2018-09-08T03:16:11.680Z,6.80
2018-09-08T03:16:46.460Z,7.30
2018-09-08T03:17:21.318Z,7.83
2018-09-08T03:17:56.076Z,6.20
2018-09-08T03:18:32.161Z,6.73
2018-09-08T03:19:06.921Z,7.70
2018-09-08T03:19:41.632Z,7.07
2018-09-08T03:20:16.423Z,6.13
2018-09-08T03:20:51.279Z,6.37
2018-09-08T03:21:26.075Z,6.27
2018-09-08T03:22:00.892Z,8.57
2018-09-08T03:22:35.590Z,6.93
2018-09-08T03:23:10.364Z,5.90
2018-09-08T03:23:45.104Z,6.03
2018-09-08T03:24:19.767Z,5.20
2018-09-08T03:24:54.543Z,7.77
2018-09-08T03:25:29.299Z,5.50
2018-09-08T03:26:04.129Z,6.40
2018-09-08T03:26:38.835Z,6.80
2018-09-08T03:27:13.616Z,6.33
2018-09-08T03:27:48.340Z,7.50
2018-09-08T03:28:23.064Z,8.47
2018-09-08T03:28:57.811Z,7.93
2018-09-08T03:29:32.601Z,7.50
2018-09-08T03:30:07.467Z,7.23
2018-09-08T03:30:42.165Z,6.70
2018-09-08T03:31:17.015Z,6.60
2018-09-08T03:31:51.816Z,5.50
2018-09-08T03:32:26.753Z,5.53
2018-09-08T03:33:01.531Z,5.93
2018-09-08T03:33:36.305Z,5.50
2018-09-08T03:34:11.085Z,5.93
2018-09-08T03:34:45.969Z,5.50
2018-09-08T03:35:20.740Z,5.30
2018-09-08T03:35:55.503Z,5.20
2018-09-08T03:36:30.398Z,4.53
2018-09-08T03:37:05.093Z,5.10
2018-09-08T03:37:39.834Z,5.30
2018-09-08T03:38:14.644Z,4.77
2018-09-08T03:38:49.487Z,4.87
2018-09-08T03:39:24.229Z,5.70
2018-09-08T03:39:58.925Z,4.60
2018-09-08T03:40:33.730Z,6.00
2018-09-08T03:41:08.669Z,5.50
2018-09-08T03:41:43.399Z,4.93
2018-09-08T03:42:18.158Z,5.83
2018-09-08T03:42:52.970Z,5.77
2018-09-08T03:43:27.740Z,6.23
2018-09-08T03:44:02.457Z,6.60
2018-09-08T03:44:37.225Z,6.37
2018-09-08T03:45:11.976Z,5.93
2018-09-08T03:45:46.653Z,7.13
2018-09-08T03:46:21.693Z,6.63
2018-09-08T03:46:56.540Z,7.50
2018-09-08T03:47:31.369Z,6.07
2018-09-08T03:48:06.167Z,6.80
2018-09-08T03:48:40.886Z,7.50
2018-09-08T03:49:15.642Z,6.90
2018-09-08T03:49:50.429Z,7.23
2018-09-08T03:50:25.282Z,8.00
2018-09-08T03:51:00.039Z,6.53
2018-09-08T03:51:34.858Z,7.23
2018-09-08T03:52:09.643Z,6.60
2018-09-08T03:52:44.392Z,6.60
2018-09-08T03:53:19.190Z,6.33
2018-09-08T03:53:53.906Z,7.13
2018-09-08T03:54:28.660Z,7.23
2018-09-08T03:55:03.364Z,6.93
2018-09-08T03:55:38.201Z,6.47
2018-09-08T03:56:13.388Z,6.70
2018-09-08T03:56:48.265Z,6.30
2018-09-08T03:57:23.027Z,6.53
2018-09-08T03:57:57.797Z,7.53
2018-09-08T03:58:32.649Z,7.63
2018-09-08T03:59:07.480Z,7.30
2018-09-08T03:59:42.278Z,7.00
2018-09-08T04:00:17.054Z,7.00
2018-09-08T04:00:52.075Z,7.23
2018-09-08T04:01:26.819Z,6.90
2018-09-08T04:02:01.612Z,8.33
2018-09-08T04:02:36.413Z,7.13
2018-09-08T04:03:14.663Z,7.47
2018-09-08T04:03:52.761Z,7.13
2018-09-08T04:04:30.866Z,6.70
2018-09-08T04:05:08.926Z,7.93
2018-09-08T04:05:46.774Z,7.03
2018-09-08T04:06:24.787Z,6.50
2018-09-08T04:07:02.799Z,6.77
2018-09-08T04:07:40.874Z,6.10
2018-09-08T04:08:18.899Z,5.90
2018-09-08T04:08:57.291Z,4.97
2018-09-08T04:09:35.253Z,5.43
2018-09-08T04:10:13.242Z,6.60
2018-09-08T04:10:51.354Z,6.53
2018-09-08T04:11:29.466Z,5.87
2018-09-08T04:12:07.632Z,5.87
2018-09-08T04:12:45.614Z,5.93
2018-09-08T04:13:23.693Z,5.70
2018-09-08T04:14:01.769Z,6.07
2018-09-08T04:14:39.695Z,6.00
2018-09-08T04:15:17.605Z,6.83
2018-09-08T04:15:55.757Z,5.70
2018-09-08T04:16:34.213Z,7.03
2018-09-08T04:17:12.252Z,5.87
2018-09-08T04:17:50.220Z,4.60
2018-09-08T04:18:28.249Z,4.80
2018-09-08T04:19:06.354Z,5.30
2018-09-08T04:19:44.321Z,4.60
2018-09-08T04:20:23.120Z,5.53
2018-09-08T04:21:01.237Z,4.80
2018-09-08T04:21:39.247Z,5.00
2018-09-08T04:22:17.143Z,5.30
2018-09-08T04:22:55.119Z,4.67
2018-09-08T04:23:33.267Z,4.87
2018-09-08T04:24:11.323Z,4.97
2018-09-08T04:24:49.398Z,4.27
2018-09-08T04:25:27.361Z,5.07
2018-09-08T04:26:05.464Z,4.40
2018-09-08T04:26:43.463Z,4.50
2018-09-08T04:27:21.588Z,4.53
2018-09-08T04:27:59.484Z,3.87
2018-09-08T04:28:37.465Z,4.33
2018-09-08T04:29:15.479Z,4.60
2018-09-08T04:29:53.456Z,3.90
2018-09-08T04:30:32.368Z,4.37
2018-09-08T04:31:10.447Z,3.93
2018-09-08T04:31:48.442Z,4.03
2018-09-08T04:32:26.509Z,4.80
2018-09-08T04:33:04.679Z,4.47
2018-09-08T04:33:42.639Z,4.47
2018-09-08T04:34:20.608Z,4.80
2018-09-08T04:34:58.541Z,4.23
2018-09-08T04:35:36.520Z,4.20
2018-09-08T04:36:14.498Z,4.20
2018-09-08T04:36:52.864Z,3.97
2018-09-08T04:37:30.775Z,3.87
2018-09-08T04:38:08.713Z,3.77
2018-09-08T04:38:46.555Z,4.40
2018-09-08T04:39:24.689Z,4.07
2018-09-08T04:40:02.623Z,3.70
2018-09-08T04:40:40.614Z,4.47
2018-09-08T04:41:18.713Z,4.00
2018-09-08T04:41:56.706Z,4.00
2018-09-08T04:42:34.808Z,3.97
2018-09-08T04:43:12.850Z,4.10
2018-09-08T04:43:50.808Z,4.40
2018-09-08T04:44:28.680Z,4.93
2018-09-08T04:45:06.714Z,4.60
2018-09-08T04:45:44.527Z,4.23
2018-09-08T04:46:22.379Z,4.50
2018-09-08T04:47:00.371Z,4.20
2018-09-08T04:47:38.360Z,4.20
2018-09-08T04:48:17.099Z,4.12
2018-09-08T04:48:54.969Z,4.67
2018-09-08T04:49:32.969Z,4.13
2018-09-08T04:50:10.976Z,4.60
2018-09-08T04:50:48.943Z,3.87
2018-09-08T04:51:26.848Z,3.70
2018-09-08T04:52:05.202Z,4.00
2018-09-08T04:52:43.052Z,3.90
2018-09-08T04:53:21.453Z,4.20
2018-09-08T04:53:59.525Z,4.37
2018-09-08T04:54:37.538Z,4.40
2018-09-08T04:55:15.391Z,3.83
2018-09-08T04:55:53.264Z,4.63
2018-09-08T04:56:31.310Z,4.13
2018-09-08T04:57:09.453Z,4.20
2018-09-08T04:57:47.491Z,3.87
2018-09-08T04:58:25.652Z,4.50
2018-09-08T04:59:03.877Z,4.07
2018-09-08T04:59:41.862Z,4.27
2018-09-08T05:00:19.946Z,4.50
2018-09-08T05:00:57.876Z,5.20
2018-09-08T05:01:35.932Z,4.73
2018-09-08T05:02:13.924Z,5.23
2018-09-08T05:02:52.036Z,4.60
2018-09-08T05:03:29.889Z,3.90
2018-09-08T05:04:07.856Z,4.47
2018-09-08T05:04:45.885Z,4.63
2018-09-08T05:05:23.972Z,4.07
2018-09-08T05:06:01.970Z,4.10
2018-09-08T05:06:39.935Z,5.07
2018-09-08T05:07:17.882Z,4.07
2018-09-08T05:07:56.919Z,4.00
2018-09-08T05:08:34.905Z,4.53
2018-09-08T05:09:14.387Z,4.43
2018-09-08T05:09:52.317Z,4.97
2018-09-08T05:10:30.284Z,4.50
2018-09-08T05:11:08.294Z,4.37
2018-09-08T05:11:46.293Z,4.70
2018-09-08T05:12:24.375Z,4.80
2018-09-08T05:13:02.479Z,3.77
2018-09-08T05:13:40.496Z,4.90
2018-09-08T05:14:18.613Z,4.33
2018-09-08T05:14:56.565Z,4.97
2018-09-08T05:15:34.579Z,5.43
2018-09-08T05:16:12.511Z,4.80
2018-09-08T05:16:50.442Z,4.50
2018-09-08T05:17:29.422Z,4.70
2018-09-08T05:18:07.499Z,4.23
2018-09-08T05:18:46.354Z,4.03
2018-09-08T05:19:24.472Z,3.80
2018-09-08T05:20:02.476Z,3.90
2018-09-08T05:20:40.501Z,4.20
2018-09-08T05:21:18.463Z,4.50
2018-09-08T05:21:56.438Z,4.10
2018-09-08T05:22:34.408Z,4.37
2018-09-08T05:23:12.581Z,4.00
2018-09-08T05:23:50.493Z,4.00
2018-09-08T05:24:28.549Z,5.03
2018-09-08T05:25:06.532Z,4.63
2018-09-08T05:25:44.549Z,4.80
2018-09-08T05:26:22.493Z,4.40
2018-09-08T05:27:00.880Z,4.80
2018-09-08T05:27:38.927Z,4.43
2018-09-08T05:28:17.020Z,4.80
2018-09-08T05:28:54.997Z,4.67
2018-09-08T05:29:33.058Z,4.50
2018-09-08T05:30:11.045Z,4.80
2018-09-08T05:30:48.973Z,5.20
2018-09-08T05:31:27.021Z,5.10
2018-09-08T05:32:05.058Z,4.17
2018-09-08T05:32:43.062Z,4.53
2018-09-08T05:33:21.540Z,4.80
2018-09-08T05:33:59.484Z,4.70
2018-09-08T05:34:37.436Z,4.53
2018-09-08T05:35:15.387Z,4.70
2018-09-08T05:35:53.273Z,5.10
2018-09-08T05:36:31.339Z,5.00
2018-09-08T05:37:09.425Z,5.07
2018-09-08T05:37:47.304Z,5.87
2018-09-08T05:38:25.269Z,5.43
2018-09-08T05:39:03.140Z,4.70
2018-09-08T05:39:41.129Z,5.10
2018-09-08T05:40:19.116Z,4.93
2018-09-08T05:40:57.097Z,5.13
2018-09-08T05:41:34.980Z,5.23
2018-09-08T05:42:13.810Z,4.50
2018-09-08T05:42:51.885Z,4.60
2018-09-08T05:43:29.911Z,5.50
2018-09-08T05:44:07.939Z,4.80
2018-09-08T05:45:28.011Z,5.17
2018-09-08T05:46:05.907Z,5.33
2018-09-08T05:46:43.965Z,5.53
2018-09-08T05:47:22.430Z,4.97
2018-09-08T05:48:00.395Z,5.27
2018-09-08T05:48:38.385Z,5.47
2018-09-08T05:49:16.244Z,6.70
2018-09-08T05:49:54.222Z,5.00
2018-09-08T05:50:32.373Z,6.00
2018-09-08T05:51:10.405Z,6.33
2018-09-08T05:51:48.467Z,5.40
2018-09-08T05:52:26.441Z,5.43
2018-09-08T05:53:04.598Z,5.03
2018-09-08T05:53:42.615Z,5.53
2018-09-08T05:54:20.645Z,6.43
2018-09-08T05:54:58.641Z,5.60
2018-09-08T05:55:36.575Z,4.70
2018-09-08T05:56:14.565Z,6.10
2018-09-08T05:56:52.663Z,5.40
2018-09-08T05:57:30.661Z,5.97
2018-09-08T05:58:08.594Z,5.77
2018-09-08T05:58:46.608Z,5.80
2018-09-08T05:59:24.475Z,5.97
2018-09-08T06:00:02.479Z,5.87
2018-09-08T06:00:40.421Z,5.60
2018-09-08T06:01:18.579Z,5.70
2018-09-08T06:01:56.686Z,5.83
2018-09-08T06:02:34.517Z,5.90
2018-09-08T06:03:12.444Z,5.10
2018-09-08T06:03:50.535Z,5.03
2018-09-08T06:04:28.591Z,5.63
2018-09-08T06:05:06.536Z,5.27
2018-09-08T06:05:44.442Z,6.10
2018-09-08T06:06:22.389Z,6.70
2018-09-08T06:07:05.171Z,6.07
2018-09-08T06:07:43.273Z,4.80
2018-09-08T06:08:21.196Z,5.43
2018-09-08T06:08:59.181Z,5.37
2018-09-08T06:09:37.930Z,4.90
2018-09-08T06:10:16.501Z,5.60
2018-09-08T06:10:54.525Z,5.47
2018-09-08T06:11:32.529Z,4.73
2018-09-08T06:12:10.500Z,5.20
2018-09-08T06:12:48.293Z,4.80
2018-09-08T06:13:26.291Z,5.60
2018-09-08T06:14:04.151Z,4.53
2018-09-08T06:14:42.075Z,4.80
2018-09-08T06:15:20.041Z,4.37
2018-09-08T06:15:57.967Z,5.10
2018-09-08T06:16:36.114Z,4.53
2018-09-08T06:17:13.950Z,5.57
2018-09-08T06:17:51.860Z,5.60
2018-09-08T06:18:29.783Z,4.90
2018-09-08T06:19:07.938Z,5.57
2018-09-08T06:19:46.043Z,4.83
2018-09-08T06:20:24.098Z,5.30
2018-09-08T06:21:02.034Z,5.63
2018-09-08T06:21:40.038Z,4.67
2018-09-08T06:22:17.877Z,4.77
2018-09-08T06:22:55.982Z,4.90
2018-09-08T06:23:33.917Z,6.63
2018-09-08T06:24:11.763Z,5.30
2018-09-08T06:24:50.741Z,5.30
2018-09-08T06:25:28.827Z,4.20
2018-09-08T06:26:06.720Z,4.93
2018-09-08T06:26:44.679Z,5.00
2018-09-08T06:27:22.729Z,5.07
2018-09-08T06:28:01.369Z,5.20
2018-09-08T06:28:40.178Z,5.10
2018-09-08T06:29:18.494Z,4.20
2018-09-08T06:29:56.428Z,4.70
2018-09-08T06:30:34.323Z,4.80
2018-09-08T06:31:12.341Z,4.50
2018-09-08T06:31:50.376Z,4.07
2018-09-08T06:32:28.398Z,4.27
2018-09-08T06:33:06.327Z,4.37
2018-09-08T06:33:44.438Z,4.67
2018-09-08T06:34:22.405Z,4.87
2018-09-08T06:35:00.524Z,4.10
2018-09-08T06:35:38.665Z,4.10
2018-09-08T06:36:16.641Z,4.80
2018-09-08T06:36:54.716Z,4.77
2018-09-08T06:37:32.644Z,4.70
2018-09-08T06:38:10.724Z,4.20
2018-09-08T06:38:48.693Z,4.20
2018-09-08T06:39:26.660Z,4.63
2018-09-08T06:40:46.774Z,3.53
2018-09-08T06:41:25.906Z,4.40
2018-09-08T06:42:03.870Z,4.50
2018-09-08T06:42:41.870Z,4.10
2018-09-08T06:43:19.845Z,3.97
2018-09-08T06:43:57.885Z,6.70
2018-09-08T06:44:36.728Z,6.23
2018-09-08T06:45:14.747Z,6.73
2018-09-08T06:45:52.674Z,5.73
2018-09-08T06:46:30.553Z,6.30
2018-09-08T06:47:09.377Z,6.60
2018-09-08T06:47:47.352Z,6.60
2018-09-08T06:48:25.324Z,6.60
2018-09-08T06:49:03.581Z,6.03
2018-09-08T06:49:41.672Z,6.30
2018-09-08T06:52:11.473Z,5.93
2018-09-08T06:52:49.483Z,6.27
2018-09-08T06:53:27.336Z,7.27
2018-09-08T06:54:05.598Z,7.07
2018-09-08T06:54:43.669Z,5.20
2018-09-08T06:55:21.744Z,5.87
2018-09-08T06:55:59.809Z,6.37
2018-09-08T06:56:37.953Z,5.10
2018-09-08T06:57:15.969Z,5.10
2018-09-08T06:57:53.936Z,4.90
2018-09-08T06:58:31.888Z,5.20
2018-09-08T06:59:09.938Z,5.80
2018-09-08T06:59:47.822Z,6.30
2018-09-08T07:00:25.792Z,6.30
2018-09-08T07:01:03.813Z,6.60
2018-09-08T07:01:41.808Z,6.60
2018-09-08T07:02:19.844Z,7.00
2018-09-08T07:02:57.689Z,6.20
2018-09-08T07:03:35.702Z,6.40
2018-09-08T07:04:13.654Z,7.00
2018-09-08T07:04:51.517Z,6.33
2018-09-08T07:05:29.683Z,5.93
2018-09-08T07:06:07.686Z,5.73
2018-09-08T07:06:45.548Z,6.30
2018-09-08T07:07:23.473Z,5.70
2018-09-08T07:08:01.485Z,5.40
2018-09-08T07:08:39.498Z,4.60
2018-09-08T07:09:17.604Z,6.23
2018-09-08T07:09:55.584Z,4.90
2018-09-08T07:10:33.446Z,5.33
2018-09-08T07:11:11.601Z,5.40
2018-09-08T07:11:49.518Z,5.30
2018-09-08T07:12:27.548Z,5.30
2018-09-08T07:13:06.010Z,5.63
2018-09-08T07:13:43.968Z,5.53
2018-09-08T07:14:21.808Z,5.40
2018-09-08T07:14:59.919Z,5.40
2018-09-08T07:15:37.801Z,5.93
2018-09-08T07:16:15.805Z,5.37
2018-09-08T07:16:53.817Z,6.10
2018-09-08T07:17:32.655Z,5.10
2018-09-08T07:18:10.547Z,5.80
2018-09-08T07:18:48.701Z,5.10
2018-09-08T07:19:26.656Z,4.90
2018-09-08T07:20:04.689Z,4.60
2018-09-08T07:20:42.580Z,4.90
2018-09-08T07:21:20.529Z,6.37
2018-09-08T07:21:58.504Z,5.90
2018-09-08T07:22:36.460Z,6.23
2018-09-08T07:23:14.391Z,6.17
2018-09-08T07:23:52.325Z,7.10
2018-09-08T07:24:30.359Z,7.10
2018-09-08T07:25:08.685Z,7.27
2018-09-08T07:25:46.645Z,6.60
2018-09-08T07:26:24.667Z,6.00
2018-09-08T07:27:03.873Z,6.53
2018-09-08T07:27:41.805Z,8.47
2018-09-08T07:28:19.971Z,8.17
2018-09-08T07:28:57.970Z,8.07
2018-09-08T07:29:35.991Z,11.00
2018-09-08T07:30:14.151Z,15.07
2018-09-08T07:30:52.373Z,15.37
2018-09-08T07:31:30.533Z,14.57
2018-09-08T07:32:08.525Z,13.23
2018-09-08T07:32:46.538Z,15.73
2018-09-08T07:33:24.632Z,14.10
2018-09-08T07:34:02.698Z,15.10
2018-09-08T07:34:40.636Z,14.07
2018-09-08T07:35:18.585Z,14.03
2018-09-08T07:35:56.595Z,12.90
2018-09-08T07:36:34.766Z,13.70
2018-09-08T07:37:12.696Z,12.77
2018-09-08T07:37:50.802Z,8.90
2018-09-08T07:38:31.345Z,8.20
2018-09-08T07:39:12.872Z,8.50
2018-09-08T07:39:50.849Z,8.90
2018-09-08T07:40:28.846Z,8.33
2018-09-08T07:41:07.008Z,7.83
2018-09-08T07:41:44.957Z,8.13
2018-09-08T07:42:22.808Z,8.37
2018-09-08T07:43:01.659Z,9.90
2018-09-08T07:43:39.648Z,9.80
2018-09-08T07:44:17.666Z,9.47
2018-09-08T07:44:55.625Z,9.10
2018-09-08T07:45:33.523Z,8.83
2018-09-08T07:46:11.517Z,10.20
2018-09-08T07:46:49.568Z,8.40
2018-09-08T07:47:27.503Z,7.97
2018-09-08T07:48:05.665Z,8.47
2018-09-08T07:48:43.722Z,7.70
2018-09-08T07:49:21.661Z,8.97
2018-09-08T07:49:59.789Z,8.10
2018-09-08T07:50:37.795Z,9.50
2018-09-08T07:51:15.819Z,8.93
2018-09-08T07:51:53.765Z,8.97
2018-09-08T07:52:31.753Z,8.60
2018-09-08T07:53:10.103Z,8.97
2018-09-08T07:53:48.154Z,9.27
2018-09-08T07:54:26.261Z,9.07
2018-09-08T07:55:04.245Z,9.07
2018-09-08T07:55:42.315Z,8.47
2018-09-08T07:56:20.338Z,8.70
2018-09-08T07:56:58.644Z,8.50
2018-09-08T07:57:36.672Z,8.20
2018-09-08T07:58:14.764Z,8.40
2018-09-08T07:58:52.892Z,8.30
2018-09-08T07:59:30.938Z,8.10
2018-09-08T08:00:09.095Z,7.40
2018-09-08T08:00:49.996Z,7.97
2018-09-08T08:01:28.205Z,8.00
2018-09-08T08:02:06.118Z,8.87
2018-09-08T08:02:44.036Z,8.70
2018-09-08T08:03:22.073Z,8.87
2018-09-08T08:04:00.156Z,7.13
2018-09-08T08:04:38.299Z,7.50
2018-09-08T08:05:16.206Z,7.20
2018-09-08T08:05:54.232Z,8.13
2018-09-08T08:06:32.288Z,6.97
2018-09-08T08:07:15.897Z,7.20
2018-09-08T08:07:53.904Z,6.80
2018-09-08T08:08:31.945Z,6.80
2018-09-08T08:09:11.917Z,7.93
2018-09-08T08:09:50.019Z,6.80
2018-09-08T08:10:28.213Z,6.97
2018-09-08T08:11:06.676Z,6.60
2018-09-08T08:11:44.560Z,6.20
2018-09-08T08:12:22.705Z,7.00
2018-09-08T08:13:00.582Z,7.40
2018-09-08T08:13:38.671Z,6.60
2018-09-08T08:14:17.024Z,6.72
2018-09-08T08:14:55.165Z,6.30
2018-09-08T08:15:33.188Z,6.03
2018-09-08T08:16:11.304Z,5.80
2018-09-08T08:16:49.334Z,6.20
2018-09-08T08:17:27.277Z,6.80
2018-09-08T08:18:05.216Z,5.33
2018-09-08T08:18:43.249Z,6.07
2018-09-08T08:19:21.168Z,5.47
2018-09-08T08:19:59.212Z,4.70
2018-09-08T08:20:37.218Z,5.87